Time;durP1;ratioP1;P1;durP2;ratioP2;P2;SDS_P1;SDS_P2;PMS_P1;PMS_P2;Temp;Humidity;BMP_temperature;BMP_pressure;BME280_temperature;BME280_humidity;BME280_pressure;Samples;Min_cycle;Max_cycle;Signal;HPM_P1;HPM_P2
2021/01/06 00:00:30;;;;;;;7.40;6.60;;;;;;;3.69;76.61;99874.78;10360337;28;20459;-66
2021/01/06 00:05:31;;;;;;;7.53;6.82;;;;;;;3.72;77.18;99875.47;10368149;28;20061;-67
2021/01/06 00:10:33;;;;;;;7.63;6.93;;;;;;;3.69;77.10;99872.16;10367116;28;20301;-68
2021/01/06 00:15:36;;;;;;;8.63;7.72;;;;;;;3.74;76.97;99875.38;10357909;28;20085;-66
2021/01/06 00:20:38;;;;;;;8.13;7.28;;;;;;;3.58;77.11;99864.88;10362524;28;20351;-67
2021/01/06 00:25:42;;;;;;;7.85;6.65;;;;;;;3.73;76.98;99868.41;10377885;28;20049;-68
2021/01/06 00:30:46;;;;;;;7.83;6.80;;;;;;;3.84;76.80;99876.53;10354703;28;20081;-67
2021/01/06 00:35:56;;;;;;;7.33;6.67;;;;;;;3.78;76.74;99870.78;10364512;28;20420;-69
2021/01/06 00:40:59;;;;;;;8.55;7.70;;;;;;;3.84;77.01;99881.81;10366541;28;20265;-67
2021/01/06 00:46:01;;;;;;;8.07;7.05;;;;;;;3.88;76.97;99872.78;10378319;28;20046;-67
2021/01/06 00:51:02;;;;;;;7.90;7.10;;;;;;;3.85;76.55;99874.75;10382458;28;20050;-67
2021/01/06 00:56:03;;;;;;;8.40;7.50;;;;;;;3.76;77.01;99870.88;10370007;28;20038;-67
2021/01/06 01:01:05;;;;;;;8.02;7.22;;;;;;;3.60;77.42;99870.06;10365845;28;20109;-68
2021/01/06 01:06:06;;;;;;;8.05;7.25;;;;;;;3.70;76.83;99874.69;10403705;28;20045;-67
2021/01/06 01:11:07;;;;;;;8.75;7.68;;;;;;;3.64;77.29;99872.41;10362385;28;20058;-68
2021/01/06 01:16:09;;;;;;;8.05;7.20;;;;;;;3.74;77.63;99882.41;10388043;28;20042;-69
2021/01/06 01:21:10;;;;;;;8.40;7.55;;;;;;;3.72;77.51;99887.75;10363210;28;20100;-67
2021/01/06 01:26:12;;;;;;;8.50;7.63;;;;;;;3.81;77.11;99887.22;10353381;28;20050;-68
2021/01/06 01:31:13;;;;;;;9.70;7.63;;;;;;;3.81;77.29;99887.22;10351427;28;20041;-68
2021/01/06 01:36:14;;;;;;;9.32;7.78;;;;;;;3.61;77.96;99884.91;10351414;28;20061;-68
2021/01/06 01:41:21;;;;;;;8.38;7.43;;;;;;;3.53;78.68;99883.56;10351125;28;20711;-68
2021/01/06 01:46:40;;;;;;;8.48;7.55;;;;;;;3.66;77.98;99873.19;10389105;28;20095;-68
2021/01/06 01:51:57;;;;;;;9.40;7.75;;;;;;;3.72;77.77;99867.56;10389665;28;20045;-68
2021/01/06 01:57:02;;;;;;;9.93;8.88;;;;;;;3.75;77.55;99874.44;10390998;28;20050;-67
2021/01/06 02:02:10;;;;;;;11.27;9.05;;;;;;;3.74;77.62;99880.66;10382625;28;20491;-68
2021/01/06 02:07:22;;;;;;;10.40;7.53;;;;;;;3.64;77.89;99863.69;10384801;28;20983;-68
2021/01/06 02:12:38;;;;;;;8.95;7.95;;;;;;;3.69;77.64;99873.03;10362032;28;20057;-68
2021/01/06 02:17:39;;;;;;;10.30;7.75;;;;;;;3.50;78.29;99873.22;10384237;28;20111;-67
2021/01/06 02:22:40;;;;;;;10.82;8.63;;;;;;;3.64;78.29;99882.13;10390131;28;20049;-67
2021/01/06 02:27:43;;;;;;;8.73;7.40;;;;;;;3.49;77.86;99833.84;10386889;28;20061;-67
2021/01/06 02:32:44;;;;;;;8.60;7.53;;;;;;;3.41;78.69;99876.38;10386687;28;20479;-67
2021/01/06 02:37:47;;;;;;;8.07;7.03;;;;;;;3.56;78.69;99871.16;10379767;28;20474;-68
2021/01/06 02:42:48;;;;;;;8.80;7.68;;;;;;;3.46;78.11;99850.63;10374693;28;20119;-68
2021/01/06 02:47:51;;;;;;;8.90;7.43;;;;;;;3.67;77.78;99872.25;10385985;28;20056;-67
2021/01/06 02:52:58;;;;;;;7.75;6.88;;;;;;;3.79;77.41;99877.75;10378112;28;20451;-67
2021/01/06 02:58:05;;;;;;;8.57;7.22;;;;;;;3.84;76.93;99876.53;10377639;28;20045;-67
2021/01/06 03:03:09;;;;;;;8.43;6.85;;;;;;;3.80;77.32;99877.66;10378159;28;20057;-67
2021/01/06 03:08:14;;;;;;;9.63;7.30;;;;;;;3.71;77.26;99867.66;10375165;28;20107;-67
2021/01/06 03:13:15;;;;;;;8.70;7.18;;;;;;;3.69;77.83;99874.78;10384405;28;20049;-68
2021/01/06 03:18:16;;;;;;;9.55;7.07;;;;;;;3.72;77.50;99871.97;10387544;28;20076;-67
2021/01/06 03:23:25;;;;;;;8.90;7.15;;;;;;;3.68;78.10;99867.84;10385469;28;20049;-68
2021/01/06 03:28:28;;;;;;;7.43;6.60;;;;;;;3.61;77.63;99864.69;10364405;28;20449;-67
2021/01/06 03:33:37;;;;;;;6.68;5.97;;;;;;;3.63;76.94;99848.81;10385803;28;20069;-67
2021/01/06 03:38:44;;;;;;;8.23;6.55;;;;;;;3.38;77.64;99847.63;10378486;28;20041;-67
2021/01/06 03:43:53;;;;;;;7.35;6.65;;;;;;;3.21;78.38;99834.56;10384812;28;20557;-68
2021/01/06 03:48:55;;;;;;;6.95;6.25;;;;;;;3.40;78.86;99843.09;10399643;28;20037;-67
2021/01/06 03:54:02;;;;;;;10.10;7.43;;;;;;;3.41;78.54;99838.69;10342869;28;20049;-67
2021/01/06 03:59:19;;;;;;;7.68;6.63;;;;;;;3.44;78.75;99833.22;10365659;28;20133;-66
2021/01/06 04:04:26;;;;;;;7.35;6.55;;;;;;;3.41;78.89;99829.03;10376401;28;20049;-67
2021/01/06 04:09:36;;;;;;;7.32;6.57;;;;;;;3.49;79.19;99831.19;10368645;28;20049;-67
2021/01/06 04:14:38;;;;;;;9.35;7.03;;;;;;;3.52;78.52;99818.69;10354018;28;20041;-67
2021/01/06 04:19:50;;;;;;;8.40;6.70;;;;;;;3.58;78.45;99821.94;10340916;28;20053;-67
2021/01/06 04:24:51;;;;;;;7.53;6.13;;;;;;;3.56;78.49;99818.53;10373280;28;20611;-66
2021/01/06 04:29:52;;;;;;;8.15;5.93;;;;;;;3.63;78.28;99810.16;10378383;28;20053;-68
2021/01/06 04:34:53;;;;;;;7.68;5.97;;;;;;;3.74;78.17;99806.06;10372957;28;20061;-66
2021/01/06 04:39:54;;;;;;;7.68;6.18;;;;;;;3.84;77.98;99805.44;10370801;28;20139;-66
2021/01/06 04:45:21;;;;;;;6.78;6.10;;;;;;;3.86;77.64;99802.72;10355524;28;20536;-66
2021/01/06 04:51:05;;;;;;;7.32;5.95;;;;;;;3.85;77.58;99791.31;10331910;28;20127;-66
2021/01/06 04:56:12;;;;;;;7.13;5.72;;;;;;;3.82;77.76;99799.41;10360533;28;20050;-66
2021/01/06 05:01:35;;;;;;;7.93;5.85;;;;;;;3.76;78.11;99798.94;10380361;28;20115;-67
2021/01/06 05:06:48;;;;;;;7.68;6.50;;;;;;;3.75;78.41;99794.59;10352088;28;20065;-67
2021/01/06 05:12:02;;;;;;;9.23;6.47;;;;;;;3.84;78.32;99797.56;10369983;28;20362;-67
2021/01/06 05:17:04;;;;;;;7.73;6.27;;;;;;;3.56;78.28;99764.13;10389428;28;20410;-66
2021/01/06 05:22:05;;;;;;;8.93;6.88;;;;;;;3.85;77.88;99798.38;10392724;28;20496;-66
2021/01/06 05:27:06;;;;;;;8.35;7.03;;;;;;;3.94;77.31;99803.09;10354460;28;20061;-67
2021/01/06 05:32:30;;;;;;;7.28;5.80;;;;;;;3.96;77.38;99795.09;10354329;28;20104;-66
2021/01/06 05:37:32;;;;;;;8.75;7.00;;;;;;;3.83;77.92;99810.81;10361451;28;20045;-66
2021/01/06 05:42:39;;;;;;;6.65;5.95;;;;;;;3.82;77.75;99815.22;10370540;28;20462;-68
2021/01/06 05:47:45;;;;;;;7.25;6.07;;;;;;;3.77;77.69;99798.84;10369213;28;20091;-67
2021/01/06 05:53:02;;;;;;;6.35;5.63;;;;;;;3.81;78.00;99813.50;10346798;28;20506;-67
2021/01/06 05:58:45;;;;;;;7.78;6.97;;;;;;;3.87;77.86;99817.56;10378603;23;20053;-74
2021/01/06 06:04:20;;;;;;;7.70;5.88;;;;;;;3.96;77.69;99813.53;10332116;28;20057;-72
2021/01/06 06:09:38;;;;;;;8.88;6.72;;;;;;;3.97;77.59;99815.25;10344929;28;20049;-73
2021/01/06 06:14:58;;;;;;;6.97;6.25;;;;;;;3.89;77.63;99824.44;10341070;28;20038;-77
2021/01/06 06:20:22;;;;;;;9.13;7.22;;;;;;;3.93;77.69;99814.56;10309826;28;20155;-71
2021/01/06 06:25:35;;;;;;;6.65;5.72;;;;;;;4.07;77.30;99816.38;10335614;28;20162;-73
2021/01/06 06:30:52;;;;;;;7.43;6.68;;;;;;;4.07;77.01;99814.59;10371729;28;20050;-73
2021/01/06 06:35:55;;;;;;;6.60;5.80;;;;;;;4.09;76.78;99822.41;10353100;28;20507;-72
2021/01/06 06:41:04;;;;;;;9.25;6.85;;;;;;;4.13;76.47;99812.50;10331894;28;20228;-71
2021/01/06 06:46:32;;;;;;;7.82;6.43;;;;;;;4.12;76.54;99824.00;10335366;28;20348;-72
2021/01/06 06:51:38;;;;;;;7.95;6.53;;;;;;;3.99;77.00;99822.09;10324393;28;20143;-70
2021/01/06 06:57:05;;;;;;;7.40;6.47;;;;;;;4.06;76.78;99833.13;10334001;28;20056;-72
2021/01/06 07:02:06;;;;;;;8.18;6.40;;;;;;;4.17;76.62;99825.41;10350319;28;20128;-72
2021/01/06 07:07:25;;;;;;;8.05;6.07;;;;;;;4.17;76.46;99833.31;10333362;28;20053;-72
2021/01/06 07:12:37;;;;;;;8.30;5.65;;;;;;;4.19;76.36;99828.81;10335093;28;20057;-71
2021/01/06 07:17:41;;;;;;;5.93;5.22;;;;;;;4.19;76.10;99843.78;10348470;28;20198;-74
2021/01/06 07:22:53;;;;;;;6.30;5.55;;;;;;;4.25;76.13;99848.69;10338050;28;20053;-71
2021/01/06 07:28:01;;;;;;;6.60;5.50;;;;;;;4.74;85.26;99845.66;10347497;28;20053;-72
2021/01/06 07:33:26;;;;;;;8.02;5.55;;;;;;;4.70;74.66;99857.31;10341924;28;20061;-74
2021/01/06 07:38:33;;;;;;;6.22;5.22;;;;;;;4.57;74.45;99849.31;10334877;28;20046;-74
2021/01/06 07:43:38;;;;;;;7.45;5.68;;;;;;;4.47;75.07;99853.47;10344379;28;20045;-75
2021/01/06 07:48:55;;;;;;;;;;;;;;;4.29;75.49;99863.34;10381191;28;20172;-72
2021/01/06 07:54:09;;;;;;;5.40;4.60;;;;;;;4.33;75.62;99861.38;10335092;28;19921;-72
2021/01/06 07:59:25;;;;;;;6.78;5.00;;;;;;;4.25;75.60;99870.59;10338078;28;20054;-76
2021/01/06 08:04:37;;;;;;;7.03;5.10;;;;;;;4.18;76.54;99871.06;10347117;28;20061;-72
2021/01/06 08:09:40;;;;;;;4.55;4.13;;;;;;;4.19;75.96;99878.88;10344015;28;20446;-71
2021/01/06 08:14:42;;;;;;;6.30;5.20;;;;;;;4.29;75.67;99883.56;10345707;28;20041;-72
2021/01/06 08:20:04;;;;;;;5.53;4.82;;;;;;;4.33;75.84;99887.72;10342128;28;20058;-72
2021/01/06 08:25:21;;;;;;;5.93;4.55;;;;;;;4.18;76.26;99885.06;10323233;28;20724;-73
2021/01/06 08:30:25;;;;;;;5.57;4.50;;;;;;;4.29;76.11;99886.22;10342925;28;20049;-77
2021/01/06 08:35:30;;;;;;;6.22;5.07;;;;;;;4.33;75.62;99890.38;10327972;28;20072;-73
2021/01/06 08:40:38;;;;;;;4.72;3.90;;;;;;;4.42;75.48;99884.53;10334633;28;20053;-72
2021/01/06 08:45:55;;;;;;;4.47;3.75;;;;;;;4.36;75.71;99877.84;10367373;28;20045;-78
2021/01/06 08:51:11;;;;;;;4.72;4.28;;;;;;;4.24;76.03;99879.41;10363735;28;20057;-75
2021/01/06 08:56:25;;;;;;;4.28;3.78;;;;;;;4.23;75.83;99883.03;10343750;28;20049;-71
2021/01/06 09:01:39;;;;;;;7.13;3.65;;;;;;;4.34;75.69;99879.72;10334212;28;20161;-71
2021/01/06 09:06:49;;;;;;;4.22;3.45;;;;;;;4.36;75.48;99887.53;10347385;28;20050;-71
2021/01/06 09:11:54;;;;;;;5.18;3.78;;;;;;;4.43;75.32;99889.72;10335754;28;20165;-72
2021/01/06 09:17:21;;;;;;;5.47;4.78;;;;;;;4.54;75.13;99886.41;10356879;28;20081;-70
2021/01/06 09:22:22;;;;;;;4.57;4.05;;;;;;;4.48;75.64;99881.53;10321637;28;20556;-74
2021/01/06 09:27:42;;;;;;;4.60;4.00;;;;;;;4.59;74.74;99894.03;10338231;28;20053;-71
2021/01/06 09:32:46;;;;;;;4.60;3.67;;;;;;;4.49;75.21;99899.03;10353985;28;20049;-74
2021/01/06 09:38:18;;;;;;;5.18;4.28;;;;;;;4.63;74.64;99900.00;10355963;28;20050;-69
2021/01/06 09:43:25;;;;;;;5.68;3.75;;;;;;;4.64;74.84;99899.03;10363321;28;20046;-74
2021/01/06 09:48:27;;;;;;;4.32;3.65;;;;;;;4.63;74.87;99898.19;10367225;28;20073;-75
2021/01/06 09:53:32;;;;;;;4.07;3.47;;;;;;;4.62;74.98;99893.00;10340505;28;20046;-71
2021/01/06 09:58:38;;;;;;;4.93;3.53;;;;;;;4.57;75.16;99883.59;10320558;28;20084;-75
2021/01/06 10:03:43;;;;;;;4.43;4.03;;;;;;;4.64;74.97;99883.22;10341704;28;20049;-72
2021/01/06 10:08:44;;;;;;;;;;;;;;;4.66;74.80;99883.97;10358205;28;20434;-71
2021/01/06 10:13:52;;;;;;;4.38;3.65;;;;;;;4.80;74.46;99891.84;10328899;28;19922;-71
2021/01/06 10:19:07;;;;;;;5.88;4.45;;;;;;;4.85;74.42;99889.81;10347489;28;20104;-74
2021/01/06 10:24:21;;;;;;;6.35;5.35;;;;;;;4.89;74.49;99888.66;10337673;28;20056;-74
2021/01/06 10:29:29;;;;;;;5.00;4.22;;;;;;;4.91;74.62;99884.13;10349639;28;20049;-71
2021/01/06 10:34:40;;;;;;;4.25;3.85;;;;;;;4.96;74.67;99870.66;10331628;28;20433;-75
2021/01/06 10:39:46;;;;;;;4.28;3.88;;;;;;;5.04;73.79;99878.91;10332634;28;20416;-72
2021/01/06 10:44:47;;;;;;;;;;;;;;;5.08;73.34;99874.31;10343933;28;20401;-71
2021/01/06 10:49:58;;;;;;;5.55;4.43;;;;;;;4.99;73.96;99869.63;10326046;28;19921;-72
2021/01/06 10:55:06;;;;;;;5.32;4.30;;;;;;;5.10;73.70;99862.72;10350253;28;20054;-70
2021/01/06 11:00:11;;;;;;;5.75;4.50;;;;;;;5.21;72.82;99854.13;10332052;28;20049;-70
2021/01/06 11:05:27;;;;;;;4.85;4.15;;;;;;;5.23;72.98;99856.66;10335569;28;20054;-73
2021/01/06 11:10:51;;;;;;;5.53;4.80;;;;;;;5.33;72.59;99855.13;10353235;28;20068;-76
2021/01/06 11:15:58;;;;;;;4.57;4.10;;;;;;;5.30;72.51;99842.97;10346496;28;20080;-71
2021/01/06 11:21:18;;;;;;;4.47;4.07;;;;;;;5.53;71.87;99839.75;10352002;28;20096;-74
2021/01/06 11:26:32;;;;;;;5.05;4.55;;;;;;;5.56;71.37;99836.91;10351486;28;21610;-71
2021/01/06 11:31:37;;;;;;;4.95;4.32;;;;;;;5.57;71.46;99831.53;10322287;28;20100;-71
2021/01/06 11:36:46;;;;;;;5.05;4.43;;;;;;;5.64;71.35;99827.53;10332176;28;20110;-70
2021/01/06 11:42:06;;;;;;;6.00;4.80;;;;;;;5.70;71.39;99828.06;10364432;28;20052;-71
2021/01/06 11:47:23;;;;;;;5.10;4.60;;;;;;;5.68;70.82;99820.25;10356916;28;20053;-71
2021/01/06 11:52:40;;;;;;;4.95;4.45;;;;;;;5.71;71.04;99809.47;10331623;28;20057;-70
2021/01/06 12:03:08;;;;;;;5.10;4.60;;;;;;;5.71;71.57;99814.75;10260891;28;20038;-64
2021/01/06 12:08:19;;;;;;;5.90;4.45;;;;;;;5.89;70.36;99807.38;10288697;28;20121;-64
2021/01/06 12:14:06;;;;;;;5.30;4.25;;;;;;;5.98;70.08;99801.50;10287697;28;20057;-64
2021/01/06 12:19:49;;;;;;;4.30;3.90;;;;;;;5.52;71.49;99799.28;10286368;28;20124;-65
2021/01/06 12:24:55;;;;;;;4.47;4.00;;;;;;;5.57;71.38;99786.66;10294203;28;20047;-65
2021/01/06 12:30:02;;;;;;;3.88;3.47;;;;;;;5.73;70.87;99796.16;10294939;28;20523;-66
2021/01/06 12:35:35;;;;;;;7.45;3.22;;;;;;;5.51;70.51;99796.75;10294925;28;20727;-65
2021/01/06 12:41:16;;;;;;;4.30;3.88;;;;;;;5.54;70.83;99794.78;10285647;28;20051;-65
2021/01/06 12:46:17;;;;;;;3.03;2.72;;;;;;;5.55;70.29;99788.53;10285798;28;20109;-65
2021/01/06 12:51:24;;;;;;;3.65;2.42;;;;;;;5.53;70.35;99784.31;10296538;28;20042;-65
2021/01/06 12:57:04;;;;;;;3.28;2.42;;;;;;;5.40;70.50;99789.56;10295919;28;20140;-65
2021/01/06 13:02:25;;;;;;;2.70;2.50;;;;;;;5.51;70.46;99792.34;10263199;28;20133;-66
2021/01/06 13:07:31;;;;;;;3.30;2.95;;;;;;;5.57;70.64;99786.66;10286199;28;20050;-69
2021/01/06 13:12:46;;;;;;;;;;;;;;;5.66;70.61;99793.94;10291461;28;20741;-66
2021/01/06 13:17:59;;;;;;;3.35;3.05;;;;;;;5.71;70.44;99798.91;10292263;28;19992;-65
2021/01/06 13:23:28;;;;;;;3.97;3.60;;;;;;;5.79;70.52;99785.19;10287795;28;20042;-65
2021/01/06 13:28:37;;;;;;;3.58;3.28;;;;;;;5.80;70.68;99776.31;10290179;28;20060;-65
2021/01/06 13:34:02;;;;;;;4.13;3.80;;;;;;;5.79;70.61;99796.59;10302682;28;20452;-65
2021/01/06 13:39:21;;;;;;;5.65;3.42;;;;;;;5.72;71.49;99799.75;10343549;28;20046;-66
2021/01/06 13:44:44;;;;;;;6.40;3.88;;;;;;;5.75;71.46;99802.19;10295520;28;20121;-67
2021/01/06 13:49:53;;;;;;;7.47;3.70;;;;;;;5.77;71.33;99802.94;10293849;28;20169;-65
2021/01/06 13:55:17;;;;;;;4.00;3.55;;;;;;;5.76;71.06;99809.16;10289951;28;20050;-66
2021/01/06 14:00:28;;;;;;;4.20;3.75;;;;;;;5.70;71.25;99812.22;10292318;28;20061;-64
2021/01/06 14:05:39;;;;;;;4.07;3.67;;;;;;;5.68;70.43;99806.22;10301052;28;20034;-64
2021/01/06 14:11:16;;;;;;;3.35;3.05;;;;;;;5.72;70.58;99810.31;10303245;28;20125;-64
2021/01/06 14:16:52;;;;;;;4.25;3.38;;;;;;;5.75;70.11;99807.47;10319179;28;20132;-64
2021/01/06 14:22:30;;;;;;;3.10;2.80;;;;;;;5.72;70.28;99816.47;10296400;28;20054;-66
2021/01/06 14:27:38;;;;;;;2.50;2.30;;;;;;;5.58;70.35;99817.38;10286572;28;20042;-66
2021/01/06 14:32:56;;;;;;;5.40;3.92;;;;;;;5.34;70.76;99782.06;10290399;28;21097;-65
2021/01/06 14:38:10;;;;;;;2.83;2.55;;;;;;;5.29;71.02;99817.50;10287541;28;20054;-64
2021/01/06 14:43:26;;;;;;;2.65;2.13;;;;;;;5.47;70.27;99817.25;10289054;28;20053;-65
2021/01/06 14:48:45;;;;;;;3.85;2.60;;;;;;;5.38;70.05;99797.56;10289730;28;20057;-65
2021/01/06 14:54:29;;;;;;;2.45;2.25;;;;;;;5.36;70.45;99799.47;10282428;28;20104;-65
2021/01/06 14:59:39;;;;;;;3.38;2.58;;;;;;;5.46;70.20;99820.81;10275044;28;784098;-66
2021/01/06 15:04:59;;;;;;;3.25;2.60;;;;;;;5.36;70.54;99793.34;10283452;28;20046;-65
2021/01/06 15:10:24;;;;;;;3.15;2.88;;;;;;;5.48;70.82;99821.59;10321190;28;20057;-65
2021/01/06 15:15:43;;;;;;;2.70;2.37;;;;;;;5.46;71.02;99816.41;10320807;28;20065;-66
2021/01/06 15:20:57;;;;;;;2.30;2.10;;;;;;;5.35;70.39;99796.94;10289109;28;20121;-65
2021/01/06 15:26:06;;;;;;;3.35;2.28;;;;;;;5.04;71.98;99799.78;10288414;28;20610;-66
2021/01/06 15:31:15;;;;;;;3.08;2.67;;;;;;;5.36;71.58;99811.81;10319637;28;20048;-66
2021/01/06 15:36:22;;;;;;;4.30;3.35;;;;;;;5.11;71.16;99776.50;10296639;28;20042;-65
2021/01/06 15:41:32;;;;;;;3.83;3.47;;;;;;;5.28;71.00;99815.81;10278434;28;20076;-65
2021/01/06 15:46:37;;;;;;;4.05;3.33;;;;;;;5.32;70.81;99819.94;10301780;28;20065;-66
2021/01/06 15:51:42;;;;;;;4.28;3.88;;;;;;;5.32;70.87;99808.53;10289760;28;20058;-64
2021/01/06 15:56:50;;;;;;;;;;;;;;;5.37;71.07;99821.44;10287054;28;20053;-65
2021/01/06 16:01:52;;;;;;;5.10;4.38;;;;;;;5.15;70.95;99788.53;10322936;28;19952;-65
2021/01/06 16:06:59;;;;;;;5.03;4.47;;;;;;;5.42;70.66;99814.91;10294501;28;20425;-65
2021/01/06 16:12:14;;;;;;;6.00;4.20;;;;;;;5.20;70.64;99773.25;10294611;28;20116;-65
2021/01/06 16:17:24;;;;;;;6.20;4.70;;;;;;;5.33;70.89;99789.13;10298079;28;20092;-65
2021/01/06 16:22:28;;;;;;;5.95;4.90;;;;;;;5.50;70.51;99822.31;10266512;28;20062;-67
2021/01/06 16:27:36;;;;;;;4.63;4.13;;;;;;;5.25;70.19;99792.25;10266103;28;20068;-66
2021/01/06 16:33:06;;;;;;;5.13;4.38;;;;;;;5.58;70.23;99829.72;10275026;28;20050;-67
2021/01/06 16:38:36;;;;;;;5.50;5.00;;;;;;;5.51;70.35;99844.28;10287668;28;20056;-67
2021/01/06 16:43:38;;;;;;;5.40;4.55;;;;;;;5.38;70.11;99810.78;10280099;28;20201;-66
2021/01/06 16:48:40;;;;;;;6.00;4.22;;;;;;;5.12;70.14;99771.13;10279532;28;20066;-66
2021/01/06 16:53:42;;;;;;;6.25;5.15;;;;;;;5.40;70.17;99808.03;10263035;28;20054;-66
2021/01/06 16:58:45;;;;;;;7.93;5.60;;;;;;;5.59;70.15;99832.28;10274820;28;20133;-66
2021/01/06 17:03:58;;;;;;;6.75;5.00;;;;;;;5.55;69.54;99820.22;10281830;28;20058;-68
2021/01/06 17:09:21;;;;;;;7.10;5.30;;;;;;;5.25;69.70;99757.94;10282700;28;20054;-65
2021/01/06 17:14:30;;;;;;;5.63;4.97;;;;;;;5.71;69.47;99843.81;10277985;28;22725;-65
2021/01/06 17:19:35;;;;;;;6.22;5.32;;;;;;;5.69;69.92;99840.44;10289542;28;20634;-65
2021/01/06 17:24:37;;;;;;;;;;;;;;;5.70;69.61;99844.75;10273374;28;20058;-68
2021/01/06 17:29:39;;;;;;;7.13;5.70;;;;;;;5.51;69.75;99810.81;10260435;28;19921;-65
2021/01/06 17:34:40;;;;;;;8.10;7.30;;;;;;;5.73;69.20;99849.81;10278872;28;20050;-66
2021/01/06 17:39:42;;;;;;;5.60;4.93;;;;;;;5.54;69.54;99826.47;10292378;28;20050;-66
2021/01/06 17:44:46;;;;;;;7.50;6.30;;;;;;;5.72;69.26;99852.56;10289429;28;20076;-67
2021/01/06 17:49:51;;;;;;;5.15;4.35;;;;;;;5.56;66.74;99834.28;10276766;28;20507;-66
2021/01/06 17:54:53;;;;;;;4.72;4.10;;;;;;;5.52;67.59;99856.53;10273396;28;20138;-64
2021/01/06 17:59:58;;;;;;;4.63;4.00;;;;;;;5.49;67.38;99842.59;10285541;28;20058;-65
2021/01/06 18:05:07;;;;;;;4.57;4.15;;;;;;;5.66;66.87;99880.25;10289807;28;20038;-65
2021/01/06 18:10:13;;;;;;;6.65;5.18;;;;;;;5.46;67.30;99832.25;10276430;28;20046;-65
2021/01/06 18:15:15;;;;;;;5.78;4.80;;;;;;;5.74;66.22;99869.19;10283026;28;20054;-64
2021/01/06 18:20:32;;;;;;;6.97;4.72;;;;;;;5.50;65.93;99877.75;10279770;28;20497;-63
2021/01/06 18:25:40;;;;;;;6.38;5.43;;;;;;;5.32;66.98;99866.63;10280434;28;20046;-65
2021/01/06 18:30:43;;;;;;;3.83;3.40;;;;;;;5.53;65.97;99880.19;10286409;28;20065;-66
2021/01/06 18:35:46;;;;;;;4.20;3.53;;;;;;;5.43;65.16;99872.03;10287190;28;20385;-63
2021/01/06 18:40:47;;;;;;;5.30;4.05;;;;;;;4.98;64.27;99778.22;10283988;28;20129;-66
2021/01/06 18:45:50;;;;;;;4.35;3.85;;;;;;;5.42;64.16;99856.28;10286367;28;20053;-64
2021/01/06 18:50:52;;;;;;;3.67;3.28;;;;;;;5.53;63.56;99864.38;10284711;28;20396;-61
2021/01/06 18:55:56;;;;;;;3.97;3.53;;;;;;;5.23;63.73;99883.03;10285543;28;20158;-65
2021/01/06 19:01:19;;;;;;;3.83;3.47;;;;;;;5.13;63.89;99893.31;10283486;28;20124;-63
2021/01/06 19:06:40;;;;;;;4.00;3.60;;;;;;;5.13;63.69;99873.09;10300121;28;20136;-60
2021/01/06 19:11:42;;;;;;;3.75;3.33;;;;;;;5.34;62.93;99885.81;10280832;28;20408;-62
2021/01/06 19:16:43;;;;;;;3.83;3.53;;;;;;;5.40;62.50;99881.94;10290689;28;20058;-66
2021/01/06 19:21:45;;;;;;;4.20;3.80;;;;;;;5.49;62.69;99895.41;10291099;28;20042;-68
2021/01/06 19:26:47;;;;;;;4.20;3.75;;;;;;;5.50;62.95;99890.97;10291648;28;20795;-65
2021/01/06 19:31:48;;;;;;;4.40;3.65;;;;;;;5.46;62.58;99897.38;10289589;28;20042;-67
2021/01/06 19:36:49;;;;;;;4.85;4.45;;;;;;;5.49;62.65;99894.53;10296985;28;20150;-65
2021/01/06 19:41:51;;;;;;;21.83;13.40;;;;;;;5.33;62.20;99873.59;10303859;28;20653;-66
2021/01/06 19:46:55;;;;;;;4.80;4.30;;;;;;;5.19;62.66;99887.66;10272223;28;21211;-66
2021/01/06 19:52:01;;;;;;;4.47;4.00;;;;;;;4.84;62.86;99898.66;10290025;22;20353;-70
2021/01/06 19:57:21;;;;;;;5.05;4.55;;;;;;;4.95;63.06;99900.59;10320123;28;20125;-70
2021/01/06 20:02:24;;;;;;;4.90;4.40;;;;;;;4.98;63.61;99889.88;10206969;28;20049;-70
2021/01/06 20:07:27;;;;;;;4.57;4.05;;;;;;;5.14;62.81;99905.59;10339664;28;22032;-70
2021/01/06 20:12:28;;;;;;;5.00;4.50;;;;;;;5.29;63.03;99888.75;10318165;28;20132;-69
2021/01/06 20:17:29;;;;;;;6.05;5.47;;;;;;;5.40;62.84;99889.88;10332033;28;20121;-71
2021/01/06 20:22:31;;;;;;;6.90;6.07;;;;;;;5.40;62.14;99889.88;10319775;28;20062;-71
2021/01/06 20:27:32;;;;;;;8.30;7.45;;;;;;;5.35;62.73;99891.97;10319979;28;20294;-71
2021/01/06 20:32:34;;;;;;;7.22;5.93;;;;;;;5.41;62.63;99886.28;10340189;28;20070;-71
2021/01/06 20:37:35;;;;;;;6.63;5.75;;;;;;;5.42;62.48;99885.31;10338011;28;20507;-72
2021/01/06 20:42:36;;;;;;;7.13;6.43;;;;;;;5.55;62.13;99894.13;10332432;28;20562;-72
2021/01/06 20:47:39;;;;;;;7.18;6.03;;;;;;;5.57;62.72;99894.91;10328514;28;20054;-72
2021/01/06 20:52:40;;;;;;;7.18;6.47;;;;;;;5.30;63.08;99889.63;10324894;28;20109;-72
2021/01/06 20:57:41;;;;;;;6.75;5.60;;;;;;;5.42;62.41;99883.53;10375400;28;20045;-71
2021/01/06 21:02:45;;;;;;;7.05;6.35;;;;;;;5.40;62.30;99881.94;10347112;28;20061;-73
2021/01/06 21:07:48;;;;;;;7.22;6.32;;;;;;;5.31;62.46;99876.34;10328785;28;20073;-71
2021/01/06 21:12:50;;;;;;;9.25;7.55;;;;;;;5.37;62.41;99890.06;10325230;28;20045;-71
2021/01/06 21:17:51;;;;;;;8.50;7.25;;;;;;;5.36;62.75;99883.09;10326469;28;20102;-70
2021/01/06 21:22:52;;;;;;;7.70;6.90;;;;;;;5.38;61.97;99886.50;10326381;28;20136;-69
2021/01/06 21:27:54;;;;;;;7.72;6.88;;;;;;;5.18;62.80;99890.38;10332714;28;20048;-71
2021/01/06 21:32:55;;;;;;;11.18;8.98;;;;;;;4.51;64.54;99883.97;10324144;28;20046;-70
2021/01/06 21:37:57;;;;;;;10.40;7.85;;;;;;;4.78;64.27;99888.50;10333006;28;20057;-71
2021/01/06 21:42:58;;;;;;;9.98;8.10;;;;;;;4.65;64.44;99882.28;10376121;28;20108;-71
2021/01/06 21:47:59;;;;;;;11.68;9.20;;;;;;;4.78;64.38;99888.50;10390623;28;20050;-71
2021/01/06 21:53:00;;;;;;;10.18;9.05;;;;;;;4.63;64.81;99894.72;10375786;28;20409;-71
2021/01/06 21:58:02;;;;;;;12.57;10.00;;;;;;;4.56;65.21;99888.94;10345316;28;20476;-71
2021/01/06 22:03:03;;;;;;;13.27;10.65;;;;;;;4.29;66.55;99896.75;10347550;28;20061;-71
2021/01/06 22:08:05;;;;;;;14.13;10.93;;;;;;;4.60;65.92;99896.56;10350022;28;20054;-71
2021/01/06 22:13:06;;;;;;;14.15;11.52;;;;;;;4.41;67.30;99893.38;10344409;28;20504;-70
2021/01/06 22:18:07;;;;;;;18.02;12.77;;;;;;;4.60;67.39;99895.75;10345449;28;20057;-71
2021/01/06 22:23:09;;;;;;;14.00;11.88;;;;;;;4.47;66.84;99895.63;10340965;28;20074;-71
2021/01/06 22:28:10;;;;;;;15.90;12.88;;;;;;;4.30;67.46;99891.38;10345089;28;20057;-71
2021/01/06 22:33:11;;;;;;;16.08;12.65;;;;;;;4.52;67.45;99882.16;10342932;28;20069;-71
2021/01/06 22:38:13;;;;;;;15.73;12.45;;;;;;;4.59;66.59;99894.91;10348480;28;20053;-71
2021/01/06 22:43:14;;;;;;;17.55;13.50;;;;;;;4.40;67.21;99895.16;10346752;28;20050;-69
2021/01/06 22:48:15;;;;;;;15.77;12.45;;;;;;;4.52;67.16;99888.31;10342854;28;20049;-70
2021/01/06 22:53:17;;;;;;;15.07;12.68;;;;;;;4.47;68.06;99900.91;10343170;28;20351;-71
2021/01/06 22:58:18;;;;;;;15.88;12.38;;;;;;;4.58;67.44;99887.94;10355540;28;20103;-71
2021/01/06 23:03:19;;;;;;;17.77;13.27;;;;;;;4.40;67.98;99892.53;10348649;28;20507;-70
2021/01/06 23:08:21;;;;;;;17.67;13.43;;;;;;;4.68;67.79;99887.34;10350812;28;20050;-70
2021/01/06 23:13:22;;;;;;;17.95;12.95;;;;;;;4.70;67.13;99885.47;10347864;28;20544;-71
2021/01/06 23:18:23;;;;;;;16.90;12.88;;;;;;;4.40;67.68;99891.69;10339015;28;20475;-70
2021/01/06 23:23:25;;;;;;;16.15;12.13;;;;;;;4.30;67.77;99906.38;10365522;28;20054;-70
2021/01/06 23:28:26;;;;;;;15.15;13.02;;;;;;;4.54;67.92;99902.22;10337404;28;20056;-71
2021/01/06 23:33:28;;;;;;;17.35;13.48;;;;;;;4.49;67.31;99904.31;10340786;28;20050;-71
2021/01/06 23:38:31;;;;;;;17.98;13.15;;;;;;;4.52;66.97;99913.81;10336638;28;20076;-72
2021/01/06 23:43:32;;;;;;;18.15;13.27;;;;;;;4.56;67.33;99913.56;10368141;28;20077;-71
2021/01/06 23:48:34;;;;;;;17.02;12.02;;;;;;;4.64;65.96;99905.16;10362164;28;20061;-72
2021/01/06 23:53:35;;;;;;;15.25;12.63;;;;;;;4.39;66.38;99913.72;10345586;28;20046;-71
2021/01/06 23:58:36;;;;;;;15.70;12.85;;;;;;;4.17;67.63;99904.44;10351115;28;20060;-71
